BLF1050 UHWW-RKSI
Flight info
| Callsign | BLF1050 |
|---|---|
| Flight time | 1h 31m |
| Altitude | 34000 |
| Route | VATIS2G VATIS B355 KICHA R452 HAMUN W4 GUMSA CONAR KARBU KARBU2E |
| Aircraft | B738/M-SDE2E3FGHIRWXY/LB1 |
Departure
| Time | 2026-04-25 06:28 |
|---|---|
| Airport | Vladivostok International Airport (UHWW) |
Arrival
| Time | 2026-04-25 07:59 |
|---|---|
| Airport | Incheon International Airport (RKSI) |
| Time | Latitude | Longitude | Altitude | Speed | Heading |
|---|---|---|---|---|---|
| 2026-04-25 05:47 | 43.39750 | 132.16560 | 32 ft | 0 kts | 152° |
| 2026-04-25 06:15 | 43.39766 | 132.16548 | 32 ft | 4 kts | 151° |
| 2026-04-25 06:16 | 43.39790 | 132.16530 | 32 ft | 4 kts | 150° |
| 2026-04-25 06:16 | 43.39812 | 132.16512 | 32 ft | 3 kts | 144° |
| 2026-04-25 06:16 | 43.39823 | 132.16498 | 32 ft | 2 kts | 124° |
| 2026-04-25 06:16 | 43.39828 | 132.16484 | 32 ft | 2 kts | 82° |
| 2026-04-25 06:17 | 43.39824 | 132.16469 | 32 ft | 2 kts | 64° |
| 2026-04-25 06:17 | 43.39820 | 132.16457 | 32 ft | 0 kts | 61° |
| 2026-04-25 06:21 | 43.39821 | 132.16461 | 32 ft | 1 kts | 61° |
| 2026-04-25 06:21 | 43.39828 | 132.16477 | 30 ft | 3 kts | 61° |
| 2026-04-25 06:21 | 43.39840 | 132.16508 | 30 ft | 5 kts | 61° |
| 2026-04-25 06:21 | 43.39859 | 132.16553 | 32 ft | 6 kts | 61° |
| 2026-04-25 06:22 | 43.39883 | 132.16613 | 32 ft | 8 kts | 61° |
| 2026-04-25 06:22 | 43.39912 | 132.16685 | 30 ft | 9 kts | 61° |
| 2026-04-25 06:22 | 43.39946 | 132.16769 | 32 ft | 11 kts | 61° |
| 2026-04-25 06:22 | 43.39985 | 132.16863 | 30 ft | 12 kts | 61° |
| 2026-04-25 06:23 | 43.40027 | 132.16968 | 31 ft | 13 kts | 62° |
| 2026-04-25 06:23 | 43.40069 | 132.17068 | 32 ft | 10 kts | 51° |
| 2026-04-25 06:23 | 43.40133 | 132.17072 | 32 ft | 10 kts | 337° |
| 2026-04-25 06:23 | 43.40202 | 132.17022 | 31 ft | 12 kts | 330° |
| 2026-04-25 06:24 | 43.40268 | 132.16971 | 31 ft | 11 kts | 331° |
| 2026-04-25 06:24 | 43.40326 | 132.16927 | 32 ft | 0 kts | 331° |
| 2026-04-25 06:25 | 43.40328 | 132.16926 | 32 ft | 3 kts | 331° |
| 2026-04-25 06:25 | 43.40370 | 132.16894 | 31 ft | 10 kts | 330° |
| 2026-04-25 06:26 | 43.40431 | 132.16820 | 31 ft | 13 kts | 285° |
| 2026-04-25 06:26 | 43.40417 | 132.16755 | 31 ft | 0 kts | 242° |
| 2026-04-25 06:27 | 43.40416 | 132.16753 | 31 ft | 1 kts | 242° |
| 2026-04-25 06:27 | 43.40397 | 132.16705 | 29 ft | 19 kts | 241° |
| 2026-04-25 06:27 | 43.40211 | 132.16250 | 31 ft | 89 kts | 241° |
| 2026-04-25 06:27 | 43.39815 | 132.15269 | 33 ft | 146 kts | 241° |
| 2026-04-25 06:28 | 43.39254 | 132.13878 | 273 ft | 176 kts | 240° |
| 2026-04-25 06:28 | 43.38653 | 132.12349 | 984 ft | 184 kts | 238° |
| 2026-04-25 06:28 | 43.38015 | 132.10803 | 1791 ft | 186 kts | 238° |
| 2026-04-25 06:28 | 43.37329 | 132.09232 | 2370 ft | 197 kts | 234° |
| 2026-04-25 06:29 | 43.36578 | 132.07538 | 2725 ft | 216 kts | 239° |
| 2026-04-25 06:29 | 43.35874 | 132.05727 | 3332 ft | 219 kts | 238° |
| 2026-04-25 06:29 | 43.35151 | 132.03883 | 4088 ft | 218 kts | 238° |
| 2026-04-25 06:29 | 43.34319 | 132.02153 | 4756 ft | 218 kts | 220° |
| 2026-04-25 06:30 | 43.32983 | 132.01228 | 5410 ft | 219 kts | 191° |
| 2026-04-25 06:30 | 43.31453 | 132.01334 | 6066 ft | 225 kts | 167° |
| 2026-04-25 06:30 | 43.30058 | 132.02390 | 6672 ft | 236 kts | 147° |
| 2026-04-25 06:30 | 43.28798 | 132.03904 | 7223 ft | 244 kts | 143° |
| 2026-04-25 06:31 | 43.27545 | 132.05527 | 7762 ft | 251 kts | 143° |
| 2026-04-25 06:31 | 43.26264 | 132.07192 | 8320 ft | 255 kts | 143° |
| 2026-04-25 06:31 | 43.24956 | 132.08873 | 8867 ft | 259 kts | 144° |
| 2026-04-25 06:31 | 43.23621 | 132.10571 | 9017 ft | 265 kts | 144° |
| 2026-04-25 06:32 | 43.22272 | 132.12273 | 9027 ft | 267 kts | 144° |
| 2026-04-25 06:32 | 43.20911 | 132.13987 | 9031 ft | 264 kts | 144° |
| 2026-04-25 06:32 | 43.19557 | 132.15690 | 9151 ft | 264 kts | 144° |
| 2026-04-25 06:32 | 43.18018 | 132.16971 | 9571 ft | 260 kts | 171° |
| 2026-04-25 06:33 | 43.16224 | 132.17240 | 10030 ft | 263 kts | 187° |
| 2026-04-25 06:33 | 43.14317 | 132.17111 | 10284 ft | 285 kts | 190° |
| 2026-04-25 06:33 | 43.12257 | 132.16905 | 10471 ft | 309 kts | 190° |
| 2026-04-25 06:33 | 43.10033 | 132.16684 | 10643 ft | 331 kts | 189° |
| 2026-04-25 06:34 | 43.07653 | 132.16463 | 10908 ft | 350 kts | 189° |
| 2026-04-25 06:34 | 43.05198 | 132.16255 | 11483 ft | 357 kts | 189° |
| 2026-04-25 06:34 | 43.02707 | 132.16055 | 12154 ft | 361 kts | 189° |
| 2026-04-25 06:34 | 43.00216 | 132.15858 | 12793 ft | 365 kts | 189° |
| 2026-04-25 06:35 | 42.97668 | 132.15659 | 13444 ft | 369 kts | 189° |
| 2026-04-25 06:35 | 42.95082 | 132.15455 | 14075 ft | 373 kts | 189° |
| 2026-04-25 06:35 | 42.92483 | 132.15249 | 14728 ft | 376 kts | 189° |
| 2026-04-25 06:35 | 42.89863 | 132.15040 | 15374 ft | 379 kts | 189° |
| 2026-04-25 06:36 | 42.87238 | 132.14725 | 15951 ft | 377 kts | 198° |
| 2026-04-25 06:36 | 42.84825 | 132.13476 | 16529 ft | 367 kts | 217° |
| 2026-04-25 06:36 | 42.82726 | 132.11525 | 17168 ft | 365 kts | 221° |
| 2026-04-25 06:36 | 42.80660 | 132.09469 | 17682 ft | 369 kts | 222° |
| 2026-04-25 06:37 | 42.78583 | 132.07374 | 18226 ft | 372 kts | 222° |
| 2026-04-25 06:37 | 42.76518 | 132.05299 | 18779 ft | 375 kts | 221° |
| 2026-04-25 06:37 | 42.74405 | 132.03191 | 19269 ft | 379 kts | 221° |
| 2026-04-25 06:37 | 42.72266 | 132.01072 | 19774 ft | 382 kts | 221° |
| 2026-04-25 06:38 | 42.70106 | 131.98944 | 20286 ft | 385 kts | 221° |
| 2026-04-25 06:38 | 42.67920 | 131.96798 | 20752 ft | 388 kts | 221° |
| 2026-04-25 06:38 | 42.65717 | 131.94643 | 21228 ft | 391 kts | 221° |
| 2026-04-25 06:38 | 42.63495 | 131.92471 | 21667 ft | 394 kts | 221° |
| 2026-04-25 06:39 | 42.61254 | 131.90283 | 22103 ft | 397 kts | 221° |
| 2026-04-25 06:39 | 42.58998 | 131.88083 | 22524 ft | 400 kts | 221° |
| 2026-04-25 06:39 | 42.56761 | 131.85902 | 22928 ft | 403 kts | 221° |
| 2026-04-25 06:39 | 42.54468 | 131.83671 | 23361 ft | 405 kts | 221° |
| 2026-04-25 06:40 | 42.52168 | 131.81434 | 23736 ft | 408 kts | 221° |
| 2026-04-25 06:40 | 42.49851 | 131.79180 | 24101 ft | 411 kts | 221° |
| 2026-04-25 06:40 | 42.47515 | 131.76911 | 24472 ft | 414 kts | 221° |
| 2026-04-25 06:40 | 42.45172 | 131.74638 | 24831 ft | 416 kts | 221° |
| 2026-04-25 06:41 | 42.42805 | 131.72342 | 25157 ft | 419 kts | 221° |
| 2026-04-25 06:41 | 42.40423 | 131.70034 | 25493 ft | 422 kts | 221° |
| 2026-04-25 06:41 | 42.38027 | 131.67717 | 25822 ft | 424 kts | 221° |
| 2026-04-25 06:41 | 42.35610 | 131.65381 | 26108 ft | 427 kts | 220° |
| 2026-04-25 06:42 | 42.33185 | 131.63040 | 26409 ft | 430 kts | 220° |
| 2026-04-25 06:42 | 42.30777 | 131.60717 | 26713 ft | 432 kts | 220° |
| 2026-04-25 06:42 | 42.28322 | 131.58350 | 27021 ft | 434 kts | 220° |
| 2026-04-25 06:42 | 42.25856 | 131.55975 | 27292 ft | 437 kts | 220° |
| 2026-04-25 06:43 | 42.23372 | 131.53586 | 27559 ft | 439 kts | 220° |
| 2026-04-25 06:43 | 42.20871 | 131.51185 | 27848 ft | 441 kts | 220° |
| 2026-04-25 06:43 | 42.18365 | 131.48788 | 28108 ft | 443 kts | 220° |
| 2026-04-25 06:43 | 42.15843 | 131.46378 | 28357 ft | 445 kts | 220° |
| 2026-04-25 06:44 | 42.13315 | 131.43962 | 28660 ft | 445 kts | 220° |
| 2026-04-25 06:44 | 42.10794 | 131.41557 | 29021 ft | 444 kts | 220° |
| 2026-04-25 06:44 | 42.08275 | 131.39157 | 29401 ft | 443 kts | 220° |
| 2026-04-25 06:44 | 42.05764 | 131.36765 | 29750 ft | 442 kts | 220° |
| 2026-04-25 06:45 | 42.03258 | 131.34381 | 30095 ft | 441 kts | 220° |
| 2026-04-25 06:45 | 42.00750 | 131.31994 | 30410 ft | 441 kts | 220° |
| 2026-04-25 06:45 | 41.98248 | 131.29615 | 30733 ft | 440 kts | 220° |
| 2026-04-25 06:45 | 41.95777 | 131.27266 | 30928 ft | 442 kts | 220° |
| 2026-04-25 06:46 | 41.93256 | 131.24875 | 31137 ft | 443 kts | 220° |
| 2026-04-25 06:46 | 41.90772 | 131.22434 | 31500 ft | 438 kts | 224° |
| 2026-04-25 06:46 | 41.88565 | 131.19659 | 31861 ft | 432 kts | 232° |
| 2026-04-25 06:46 | 41.86693 | 131.16540 | 32165 ft | 428 kts | 236° |
| 2026-04-25 06:47 | 41.84880 | 131.13372 | 32430 ft | 428 kts | 236° |
| 2026-04-25 06:47 | 41.83072 | 131.10201 | 32690 ft | 428 kts | 236° |
| 2026-04-25 06:47 | 41.81259 | 131.07035 | 32973 ft | 427 kts | 236° |
| 2026-04-25 06:47 | 41.79441 | 131.03885 | 33279 ft | 426 kts | 236° |
| 2026-04-25 06:48 | 41.77627 | 131.00758 | 33583 ft | 424 kts | 236° |
| 2026-04-25 06:48 | 41.75810 | 130.97640 | 33847 ft | 423 kts | 236° |
| 2026-04-25 06:48 | 41.73996 | 130.94536 | 34045 ft | 424 kts | 236° |
| 2026-04-25 06:49 | 41.70326 | 130.88269 | 34045 ft | 428 kts | 236° |
| 2026-04-25 06:49 | 41.66692 | 130.82082 | 34025 ft | 421 kts | 236° |
| 2026-04-25 06:50 | 41.63077 | 130.75936 | 34040 ft | 419 kts | 236° |
| 2026-04-25 06:50 | 41.59478 | 130.69822 | 34037 ft | 418 kts | 236° |
| 2026-04-25 06:51 | 41.56474 | 130.64727 | 34093 ft | 422 kts | 236° |
| 2026-04-25 06:51 | 41.54653 | 130.61641 | 34263 ft | 423 kts | 236° |
| 2026-04-25 06:51 | 41.52252 | 130.57589 | 34776 ft | 417 kts | 236° |
| 2026-04-25 06:51 | 41.50458 | 130.54559 | 35009 ft | 416 kts | 236° |
| 2026-04-25 06:52 | 41.49263 | 130.52541 | 35019 ft | 419 kts | 236° |
| 2026-04-25 06:52 | 41.45612 | 130.46391 | 35023 ft | 419 kts | 236° |
| 2026-04-25 06:53 | 41.42024 | 130.40370 | 35020 ft | 415 kts | 236° |
| 2026-04-25 06:53 | 41.38437 | 130.34360 | 35027 ft | 413 kts | 236° |
| 2026-04-25 06:54 | 41.34861 | 130.28375 | 35027 ft | 412 kts | 236° |
| 2026-04-25 06:54 | 41.31295 | 130.22417 | 35028 ft | 412 kts | 236° |
| 2026-04-25 06:55 | 41.27745 | 130.16490 | 35029 ft | 413 kts | 235° |
| 2026-04-25 06:55 | 41.24148 | 130.10506 | 35032 ft | 415 kts | 235° |
| 2026-04-25 06:56 | 41.20531 | 130.04500 | 35030 ft | 417 kts | 235° |
| 2026-04-25 06:56 | 41.16919 | 129.98514 | 35032 ft | 418 kts | 235° |
| 2026-04-25 06:57 | 41.13266 | 129.92475 | 35029 ft | 420 kts | 235° |
| 2026-04-25 06:57 | 41.09596 | 129.86414 | 35028 ft | 421 kts | 234° |
| 2026-04-25 06:58 | 41.05908 | 129.80338 | 35021 ft | 423 kts | 234° |
| 2026-04-25 06:58 | 41.02241 | 129.74305 | 35027 ft | 423 kts | 234° |
| 2026-04-25 06:59 | 40.98539 | 129.68229 | 35026 ft | 424 kts | 234° |
| 2026-04-25 06:59 | 40.94824 | 129.62143 | 35023 ft | 425 kts | 234° |
| 2026-04-25 07:00 | 40.91104 | 129.56061 | 35013 ft | 425 kts | 234° |
| 2026-04-25 07:00 | 40.87384 | 129.49993 | 35020 ft | 424 kts | 234° |
| 2026-04-25 07:01 | 40.83668 | 129.43943 | 35007 ft | 423 kts | 234° |
| 2026-04-25 07:01 | 40.79975 | 129.37936 | 35017 ft | 423 kts | 234° |
| 2026-04-25 07:02 | 40.76264 | 129.31918 | 35015 ft | 422 kts | 234° |
| 2026-04-25 07:02 | 40.72553 | 129.25909 | 35020 ft | 421 kts | 233° |
| 2026-04-25 07:03 | 40.68875 | 129.19951 | 35018 ft | 420 kts | 235° |
| 2026-04-25 07:03 | 40.65783 | 129.13473 | 35024 ft | 416 kts | 242° |
| 2026-04-25 07:04 | 40.62881 | 129.06856 | 35016 ft | 417 kts | 242° |
| 2026-04-25 07:04 | 40.59963 | 129.00242 | 35027 ft | 418 kts | 242° |
| 2026-04-25 07:05 | 40.57016 | 128.93619 | 35014 ft | 420 kts | 242° |
| 2026-04-25 07:05 | 40.54048 | 128.86987 | 35022 ft | 421 kts | 241° |
| 2026-04-25 07:06 | 40.51080 | 128.80377 | 35025 ft | 422 kts | 241° |
| 2026-04-25 07:06 | 40.48087 | 128.73720 | 35034 ft | 422 kts | 241° |
| 2026-04-25 07:07 | 40.45100 | 128.67084 | 35039 ft | 422 kts | 241° |
| 2026-04-25 07:07 | 40.42126 | 128.60492 | 35044 ft | 422 kts | 241° |
| 2026-04-25 07:08 | 40.39129 | 128.53868 | 35046 ft | 422 kts | 240° |
| 2026-04-25 07:08 | 40.36129 | 128.47248 | 35046 ft | 422 kts | 240° |
| 2026-04-25 07:09 | 40.33119 | 128.40620 | 35046 ft | 423 kts | 240° |
| 2026-04-25 07:09 | 40.30098 | 128.33985 | 35051 ft | 425 kts | 240° |
| 2026-04-25 07:10 | 40.27054 | 128.27312 | 35045 ft | 427 kts | 240° |
| 2026-04-25 07:10 | 40.24015 | 128.20662 | 35053 ft | 428 kts | 240° |
| 2026-04-25 07:11 | 40.20947 | 128.13969 | 35053 ft | 429 kts | 240° |
| 2026-04-25 07:11 | 40.17871 | 128.07268 | 35055 ft | 430 kts | 240° |
| 2026-04-25 07:12 | 40.14783 | 128.00560 | 35051 ft | 430 kts | 239° |
| 2026-04-25 07:12 | 40.10167 | 127.90555 | 35048 ft | 430 kts | 239° |
| 2026-04-25 07:13 | 40.07077 | 127.83875 | 35053 ft | 429 kts | 239° |
| 2026-04-25 07:13 | 40.03989 | 127.77215 | 35043 ft | 428 kts | 239° |
| 2026-04-25 07:14 | 40.00907 | 127.70578 | 35051 ft | 427 kts | 240° |
| 2026-04-25 07:14 | 39.97848 | 127.64004 | 35041 ft | 426 kts | 239° |
| 2026-04-25 07:15 | 39.94766 | 127.57399 | 35045 ft | 426 kts | 239° |
| 2026-04-25 07:15 | 39.92936 | 127.54359 | 35022 ft | 427 kts | 223° |
| 2026-04-25 07:15 | 39.90528 | 127.52088 | 35064 ft | 429 kts | 210° |
| 2026-04-25 07:16 | 39.87767 | 127.50623 | 35091 ft | 432 kts | 195° |
| 2026-04-25 07:16 | 39.84807 | 127.49875 | 35106 ft | 433 kts | 192° |
| 2026-04-25 07:16 | 39.78890 | 127.48620 | 35088 ft | 434 kts | 192° |
| 2026-04-25 07:17 | 39.72926 | 127.47224 | 35095 ft | 434 kts | 193° |
| 2026-04-25 07:17 | 39.66981 | 127.45742 | 35088 ft | 435 kts | 193° |
| 2026-04-25 07:18 | 39.61056 | 127.44251 | 35091 ft | 436 kts | 195° |
| 2026-04-25 07:18 | 39.55466 | 127.41389 | 35098 ft | 431 kts | 212° |
| 2026-04-25 07:19 | 39.50725 | 127.36725 | 35097 ft | 428 kts | 222° |
| 2026-04-25 07:19 | 39.46185 | 127.31714 | 35105 ft | 429 kts | 221° |
| 2026-04-25 07:20 | 39.41593 | 127.26761 | 35098 ft | 429 kts | 221° |
| 2026-04-25 07:20 | 39.36539 | 127.22817 | 35121 ft | 434 kts | 198° |
| 2026-04-25 07:21 | 39.33543 | 127.22194 | 35089 ft | 439 kts | 183° |
| 2026-04-25 07:21 | 39.30490 | 127.22584 | 35118 ft | 442 kts | 173° |
| 2026-04-25 07:21 | 39.24436 | 127.24137 | 35105 ft | 444 kts | 171° |
| 2026-04-25 07:22 | 39.18376 | 127.25784 | 35094 ft | 444 kts | 171° |
| 2026-04-25 07:22 | 39.12364 | 127.27354 | 35114 ft | 443 kts | 172° |
| 2026-04-25 07:23 | 39.06298 | 127.28890 | 35105 ft | 444 kts | 172° |
| 2026-04-25 07:23 | 39.00233 | 127.30407 | 35106 ft | 443 kts | 172° |
| 2026-04-25 07:24 | 38.94191 | 127.31914 | 35109 ft | 442 kts | 172° |
| 2026-04-25 07:24 | 38.88152 | 127.33422 | 35109 ft | 442 kts | 172° |
| 2026-04-25 07:25 | 38.82113 | 127.34927 | 35107 ft | 441 kts | 172° |
| 2026-04-25 07:25 | 38.76096 | 127.36425 | 35112 ft | 439 kts | 172° |
| 2026-04-25 07:26 | 38.70136 | 127.37907 | 35113 ft | 438 kts | 173° |
| 2026-04-25 07:26 | 38.64145 | 127.39394 | 35107 ft | 438 kts | 173° |
| 2026-04-25 07:27 | 38.58160 | 127.40877 | 35112 ft | 437 kts | 173° |
| 2026-04-25 07:27 | 38.52187 | 127.42351 | 35108 ft | 437 kts | 173° |
| 2026-04-25 07:28 | 38.46213 | 127.43826 | 35105 ft | 437 kts | 173° |
| 2026-04-25 07:28 | 38.40239 | 127.45299 | 35109 ft | 437 kts | 173° |
| 2026-04-25 07:29 | 38.34297 | 127.46759 | 35109 ft | 437 kts | 173° |
| 2026-04-25 07:29 | 38.28304 | 127.48232 | 35110 ft | 438 kts | 173° |
| 2026-04-25 07:30 | 38.22324 | 127.49697 | 35117 ft | 438 kts | 173° |
| 2026-04-25 07:30 | 38.16368 | 127.51155 | 35109 ft | 438 kts | 173° |
| 2026-04-25 07:31 | 38.13369 | 127.51888 | 34998 ft | 440 kts | 173° |
| 2026-04-25 07:31 | 38.10340 | 127.52626 | 34543 ft | 442 kts | 173° |
| 2026-04-25 07:31 | 38.07337 | 127.53360 | 34085 ft | 438 kts | 172° |
| 2026-04-25 07:31 | 38.04354 | 127.54089 | 33649 ft | 434 kts | 172° |
| 2026-04-25 07:32 | 38.01400 | 127.54811 | 33201 ft | 430 kts | 172° |
| 2026-04-25 07:32 | 37.98472 | 127.55524 | 32768 ft | 426 kts | 172° |
| 2026-04-25 07:32 | 37.95571 | 127.56229 | 32324 ft | 423 kts | 172° |
| 2026-04-25 07:32 | 37.92690 | 127.56929 | 31902 ft | 420 kts | 172° |
| 2026-04-25 07:33 | 37.89832 | 127.57624 | 31472 ft | 416 kts | 172° |
| 2026-04-25 07:33 | 37.87029 | 127.58304 | 31064 ft | 413 kts | 172° |
| 2026-04-25 07:33 | 37.84211 | 127.58987 | 30640 ft | 410 kts | 172° |
| 2026-04-25 07:33 | 37.81406 | 127.59666 | 30210 ft | 408 kts | 172° |
| 2026-04-25 07:34 | 37.78624 | 127.60339 | 29795 ft | 405 kts | 172° |
| 2026-04-25 07:34 | 37.75857 | 127.61008 | 29361 ft | 402 kts | 172° |
| 2026-04-25 07:34 | 37.73113 | 127.61671 | 28920 ft | 400 kts | 172° |
| 2026-04-25 07:34 | 37.70387 | 127.62330 | 28484 ft | 398 kts | 172° |
| 2026-04-25 07:35 | 37.67708 | 127.62976 | 28049 ft | 396 kts | 172° |
| 2026-04-25 07:35 | 37.65010 | 127.63627 | 27604 ft | 394 kts | 172° |
| 2026-04-25 07:35 | 37.62315 | 127.64276 | 27170 ft | 392 kts | 172° |
| 2026-04-25 07:35 | 37.59635 | 127.64721 | 26707 ft | 386 kts | 185° |
| 2026-04-25 07:36 | 37.57036 | 127.64100 | 26306 ft | 377 kts | 204° |
| 2026-04-25 07:36 | 37.54783 | 127.62487 | 25878 ft | 370 kts | 221° |
| 2026-04-25 07:36 | 37.53029 | 127.60128 | 25323 ft | 369 kts | 236° |
| 2026-04-25 07:36 | 37.51848 | 127.57286 | 24896 ft | 366 kts | 252° |
| 2026-04-25 07:37 | 37.51245 | 127.54183 | 24505 ft | 363 kts | 258° |
| 2026-04-25 07:37 | 37.50786 | 127.51063 | 24098 ft | 361 kts | 259° |
| 2026-04-25 07:37 | 37.50332 | 127.47953 | 23716 ft | 359 kts | 258° |
| 2026-04-25 07:37 | 37.50020 | 127.45912 | 23448 ft | 357 kts | 258° |
| 2026-04-25 07:38 | 37.49378 | 127.41872 | 22928 ft | 354 kts | 258° |
| 2026-04-25 07:38 | 37.48583 | 127.38962 | 22514 ft | 351 kts | 240° |
| 2026-04-25 07:38 | 37.47122 | 127.36528 | 22136 ft | 349 kts | 224° |
| 2026-04-25 07:38 | 37.45209 | 127.34655 | 21775 ft | 347 kts | 216° |
| 2026-04-25 07:39 | 37.43894 | 127.33518 | 21507 ft | 346 kts | 216° |
| 2026-04-25 07:39 | 37.41907 | 127.31819 | 21127 ft | 344 kts | 216° |
| 2026-04-25 07:39 | 37.39938 | 127.30106 | 20742 ft | 343 kts | 216° |
| 2026-04-25 07:39 | 37.37987 | 127.28388 | 20361 ft | 341 kts | 216° |
| 2026-04-25 07:40 | 37.36051 | 127.26671 | 19981 ft | 340 kts | 216° |
| 2026-04-25 07:40 | 37.34124 | 127.24960 | 19594 ft | 339 kts | 216° |
| 2026-04-25 07:40 | 37.32201 | 127.23255 | 19268 ft | 336 kts | 216° |
| 2026-04-25 07:40 | 37.30316 | 127.21587 | 19137 ft | 326 kts | 216° |
| 2026-04-25 07:41 | 37.28600 | 127.19792 | 18961 ft | 317 kts | 232° |
| 2026-04-25 07:41 | 37.27512 | 127.17442 | 18751 ft | 310 kts | 250° |
| 2026-04-25 07:41 | 37.27073 | 127.14843 | 18438 ft | 309 kts | 266° |
| 2026-04-25 07:41 | 37.27029 | 127.12145 | 18121 ft | 308 kts | 269° |
| 2026-04-25 07:42 | 37.27057 | 127.09460 | 17815 ft | 306 kts | 270° |
| 2026-04-25 07:42 | 37.27090 | 127.06823 | 17687 ft | 298 kts | 270° |
| 2026-04-25 07:42 | 37.27114 | 127.04247 | 17536 ft | 291 kts | 269° |
| 2026-04-25 07:42 | 37.27125 | 127.01732 | 17413 ft | 284 kts | 269° |
| 2026-04-25 07:43 | 37.27129 | 126.99317 | 17281 ft | 276 kts | 269° |
| 2026-04-25 07:43 | 37.27131 | 126.96935 | 17175 ft | 268 kts | 269° |
| 2026-04-25 07:43 | 37.27131 | 126.94628 | 17061 ft | 262 kts | 269° |
| 2026-04-25 07:43 | 37.27162 | 126.92347 | 16852 ft | 263 kts | 277° |
| 2026-04-25 07:44 | 37.27806 | 126.90210 | 16644 ft | 265 kts | 302° |
| 2026-04-25 07:44 | 37.29043 | 126.88467 | 16383 ft | 270 kts | 314° |
| 2026-04-25 07:44 | 37.30410 | 126.86819 | 16081 ft | 274 kts | 314° |
| 2026-04-25 07:44 | 37.31781 | 126.85142 | 15775 ft | 275 kts | 314° |
| 2026-04-25 07:45 | 37.33079 | 126.83536 | 15539 ft | 272 kts | 313° |
| 2026-04-25 07:45 | 37.34422 | 126.81859 | 15202 ft | 273 kts | 312° |
| 2026-04-25 07:45 | 37.35735 | 126.80143 | 14926 ft | 272 kts | 311° |
| 2026-04-25 07:45 | 37.36982 | 126.78354 | 14606 ft | 271 kts | 299° |
| 2026-04-25 07:46 | 37.37566 | 126.76144 | 14318 ft | 266 kts | 272° |
| 2026-04-25 07:46 | 37.37324 | 126.73870 | 14041 ft | 262 kts | 250° |
| 2026-04-25 07:46 | 37.36359 | 126.71966 | 13736 ft | 261 kts | 220° |
| 2026-04-25 07:46 | 37.34766 | 126.70955 | 13428 ft | 263 kts | 193° |
| 2026-04-25 07:47 | 37.32931 | 126.70975 | 13081 ft | 268 kts | 167° |
| 2026-04-25 07:47 | 37.31235 | 126.71937 | 12797 ft | 270 kts | 148° |
| 2026-04-25 07:47 | 37.29690 | 126.73285 | 12500 ft | 270 kts | 146° |
| 2026-04-25 07:47 | 37.28165 | 126.74670 | 12206 ft | 270 kts | 145° |
| 2026-04-25 07:48 | 37.26632 | 126.76053 | 11911 ft | 270 kts | 146° |
| 2026-04-25 07:48 | 37.25098 | 126.77419 | 11620 ft | 270 kts | 146° |
| 2026-04-25 07:48 | 37.23584 | 126.78759 | 11332 ft | 270 kts | 146° |
| 2026-04-25 07:48 | 37.22044 | 126.80118 | 11034 ft | 271 kts | 146° |
| 2026-04-25 07:49 | 37.20497 | 126.81479 | 10745 ft | 271 kts | 146° |
| 2026-04-25 07:49 | 37.18957 | 126.82832 | 10461 ft | 269 kts | 146° |
| 2026-04-25 07:49 | 37.17418 | 126.84185 | 10149 ft | 271 kts | 146° |
| 2026-04-25 07:49 | 37.15863 | 126.85535 | 9837 ft | 271 kts | 150° |
| 2026-04-25 07:50 | 37.14142 | 126.86241 | 9733 ft | 256 kts | 179° |
| 2026-04-25 07:50 | 37.12457 | 126.85892 | 9431 ft | 251 kts | 204° |
| 2026-04-25 07:50 | 37.10985 | 126.84680 | 9049 ft | 250 kts | 225° |
| 2026-04-25 07:50 | 37.09927 | 126.83000 | 8727 ft | 248 kts | 238° |
| 2026-04-25 07:51 | 37.09423 | 126.80967 | 8425 ft | 244 kts | 270° |
| 2026-04-25 07:51 | 37.09778 | 126.78921 | 8178 ft | 240 kts | 295° |
| 2026-04-25 07:51 | 37.10760 | 126.77285 | 7925 ft | 239 kts | 318° |
| 2026-04-25 07:51 | 37.12088 | 126.76025 | 7699 ft | 240 kts | 324° |
| 2026-04-25 07:52 | 37.13469 | 126.74841 | 7417 ft | 241 kts | 324° |
| 2026-04-25 07:52 | 37.14851 | 126.73655 | 7176 ft | 240 kts | 324° |
| 2026-04-25 07:52 | 37.16228 | 126.72464 | 6895 ft | 241 kts | 324° |
| 2026-04-25 07:52 | 37.17619 | 126.71249 | 6553 ft | 245 kts | 323° |
| 2026-04-25 07:53 | 37.19015 | 126.70020 | 6213 ft | 245 kts | 323° |
| 2026-04-25 07:53 | 37.20415 | 126.68791 | 5901 ft | 245 kts | 323° |
| 2026-04-25 07:53 | 37.21814 | 126.67564 | 5552 ft | 246 kts | 323° |
| 2026-04-25 07:53 | 37.23217 | 126.66330 | 5231 ft | 246 kts | 323° |
| 2026-04-25 07:54 | 37.24615 | 126.65094 | 4998 ft | 242 kts | 323° |
| 2026-04-25 07:54 | 37.25960 | 126.63908 | 4957 ft | 232 kts | 323° |
| 2026-04-25 07:54 | 37.27236 | 126.62781 | 4548 ft | 245 kts | 323° |
| 2026-04-25 07:54 | 37.28649 | 126.61530 | 4079 ft | 249 kts | 323° |
| 2026-04-25 07:55 | 37.30071 | 126.60273 | 3709 ft | 249 kts | 323° |
| 2026-04-25 07:55 | 37.31484 | 126.59021 | 3421 ft | 245 kts | 323° |
| 2026-04-25 07:55 | 37.32849 | 126.57831 | 3231 ft | 236 kts | 324° |
| 2026-04-25 07:55 | 37.34237 | 126.56647 | 2787 ft | 239 kts | 323° |
| 2026-04-25 07:56 | 37.35585 | 126.55458 | 2454 ft | 229 kts | 323° |
| 2026-04-25 07:56 | 37.36838 | 126.54338 | 2136 ft | 213 kts | 322° |
| 2026-04-25 07:56 | 37.38007 | 126.53291 | 1849 ft | 199 kts | 322° |
| 2026-04-25 07:56 | 37.39097 | 126.52316 | 1592 ft | 185 kts | 322° |
| 2026-04-25 07:57 | 37.40102 | 126.51417 | 1364 ft | 174 kts | 322° |
| 2026-04-25 07:57 | 37.41061 | 126.50560 | 1145 ft | 163 kts | 322° |
| 2026-04-25 07:57 | 37.41957 | 126.49758 | 967 ft | 154 kts | 322° |
| 2026-04-25 07:57 | 37.42838 | 126.48970 | 729 ft | 155 kts | 322° |
| 2026-04-25 07:58 | 37.43708 | 126.48193 | 522 ft | 152 kts | 322° |
| 2026-04-25 07:58 | 37.44563 | 126.47421 | 332 ft | 155 kts | 322° |
| 2026-04-25 07:58 | 37.45457 | 126.46628 | 157 ft | 159 kts | 323° |
| 2026-04-25 07:58 | 37.46338 | 126.45849 | 36 ft | 145 kts | 324° |
| 2026-04-25 07:59 | 37.47033 | 126.45227 | 32 ft | 92 kts | 324° |
| 2026-04-25 07:59 | 37.47367 | 126.44903 | 32 ft | 34 kts | 308° |
| 2026-04-25 07:59 | 37.47471 | 126.44673 | 32 ft | 18 kts | 265° |
| 2026-04-25 07:59 | 37.47448 | 126.44635 | 32 ft | 0 kts | 209° |
| 2026-04-25 08:00 | 37.47439 | 126.44630 | 29 ft | 5 kts | 202° |
| 2026-04-25 08:01 | 37.47371 | 126.44594 | 32 ft | 14 kts | 221° |
| 2026-04-25 08:01 | 37.47320 | 126.44507 | 31 ft | 15 kts | 234° |
| 2026-04-25 08:01 | 37.47251 | 126.44389 | 30 ft | 18 kts | 234° |
| 2026-04-25 08:01 | 37.47171 | 126.44246 | 32 ft | 20 kts | 234° |
| 2026-04-25 08:02 | 37.47084 | 126.44091 | 32 ft | 22 kts | 235° |
| 2026-04-25 08:02 | 37.47038 | 126.43962 | 32 ft | 8 kts | 283° |
| 2026-04-25 08:02 | 37.47099 | 126.43885 | 30 ft | 17 kts | 325° |
| 2026-04-25 08:02 | 37.47193 | 126.43864 | 31 ft | 11 kts | 335° |
| 2026-04-25 08:03 | 37.47253 | 126.43875 | 32 ft | 2 kts | 53° |
| 2026-04-25 08:03 | 37.47258 | 126.43883 | 32 ft | 0 kts | 54° |